createdAt,value
2023-05-10T00:02:22.892Z,86.20
2023-05-10T00:04:50.162Z,85.89
2023-05-10T00:07:18.569Z,86.20
2023-05-10T00:09:45.470Z,86.33
2023-05-10T00:12:12.515Z,86.58
2023-05-10T00:14:39.684Z,85.49
2023-05-10T00:17:06.674Z,86.29
2023-05-10T00:19:33.769Z,85.44
2023-05-10T00:22:00.702Z,86.18
2023-05-10T00:24:27.660Z,85.71
2023-05-10T00:26:54.521Z,86.59
2023-05-10T00:29:21.414Z,86.30
2023-05-10T00:31:48.385Z,86.11
2023-05-10T00:34:15.477Z,86.02
2023-05-10T00:36:42.694Z,86.08
2023-05-10T00:39:09.694Z,85.73
2023-05-10T00:41:36.568Z,85.93
2023-05-10T00:44:03.842Z,85.58
2023-05-10T00:46:32.081Z,85.60
2023-05-10T00:48:59.440Z,85.70
2023-05-10T00:51:27.084Z,86.30
2023-05-10T00:53:54.476Z,85.70
2023-05-10T00:56:24.237Z,86.44
2023-05-10T00:58:51.476Z,86.36
2023-05-10T01:03:53.892Z,86.01
2023-05-10T01:06:20.970Z,86.20
2023-05-10T01:08:51.210Z,86.29
2023-05-10T01:11:18.440Z,85.76
2023-05-10T01:13:54.053Z,85.57
2023-05-10T01:16:21.484Z,86.81
2023-05-10T01:18:49.818Z,87.39
2023-05-10T01:21:29.109Z,87.58
2023-05-10T01:24:24.034Z,87.71
2023-05-10T01:27:02.984Z,86.93
2023-05-10T01:29:41.847Z,87.04
2023-05-10T01:32:22.230Z,87.92
2023-05-10T01:34:58.457Z,86.59
2023-05-10T01:37:43.754Z,86.90
2023-05-10T01:40:53.148Z,87.22
2023-05-10T01:43:27.740Z,86.91
2023-05-10T01:46:15.814Z,87.06
2023-05-10T01:48:55.998Z,88.24
2023-05-10T01:51:28.902Z,87.45
2023-05-10T01:54:02.009Z,89.18
2023-05-10T01:56:33.374Z,88.64
2023-05-10T01:59:05.694Z,87.95
2023-05-10T02:01:34.996Z,88.02
2023-05-10T02:04:04.710Z,87.99
2023-05-10T02:06:34.815Z,88.68
2023-05-10T02:09:04.052Z,88.53
2023-05-10T02:11:32.884Z,89.44
2023-05-10T02:14:03.163Z,89.58
2023-05-10T02:16:32.254Z,89.89
2023-05-10T02:19:01.518Z,90.72
2023-05-10T02:21:30.304Z,90.59
2023-05-10T02:23:59.374Z,89.83
2023-05-10T02:26:28.778Z,89.49
2023-05-10T02:28:58.557Z,89.98
2023-05-10T02:31:27.383Z,90.48
2023-05-10T02:33:55.516Z,90.17
2023-05-10T02:36:24.309Z,89.30
2023-05-10T02:38:54.324Z,89.00
2023-05-10T02:41:24.778Z,89.06
2023-05-10T02:43:53.688Z,88.45
2023-05-10T02:46:20.890Z,89.27
2023-05-10T02:48:48.397Z,89.04
2023-05-10T02:51:18.832Z,90.18
2023-05-10T02:53:48.386Z,89.65
2023-05-10T02:56:21.824Z,89.30
2023-05-10T02:58:49.156Z,89.83
2023-05-10T03:01:17.282Z,89.78
2023-05-10T03:03:44.691Z,89.94
2023-05-10T03:06:11.747Z,90.02
2023-05-10T03:08:39.037Z,89.77
2023-05-10T03:11:25.896Z,90.10
2023-05-10T03:14:07.420Z,91.17
2023-05-10T03:16:47.734Z,91.00
2023-05-10T03:19:40.155Z,90.55
2023-05-10T03:22:12.011Z,90.30
2023-05-10T03:24:41.022Z,91.36
2023-05-10T03:27:09.432Z,90.53
2023-05-10T03:29:37.598Z,90.59
2023-05-10T03:32:05.394Z,90.57
2023-05-10T03:34:32.951Z,90.75
2023-05-10T03:37:00.422Z,90.60
2023-05-10T03:39:27.405Z,90.42
2023-05-10T03:41:54.492Z,89.78
2023-05-10T03:44:21.683Z,90.17
2023-05-10T03:46:48.857Z,90.46
2023-05-10T03:49:16.423Z,90.58
2023-05-10T03:51:43.629Z,90.03
2023-05-10T03:54:10.747Z,90.67
2023-05-10T03:56:37.987Z,90.28
2023-05-10T03:59:08.693Z,90.55
2023-05-10T04:01:36.589Z,89.72
2023-05-10T04:04:04.000Z,89.11
2023-05-10T04:06:31.258Z,88.79
2023-05-10T04:09:01.093Z,88.18
2023-05-10T04:11:28.265Z,88.55
2023-05-10T04:13:55.332Z,88.66
2023-05-10T04:16:22.357Z,88.07
2023-05-10T04:18:50.042Z,87.72
2023-05-10T04:21:17.311Z,87.47
2023-05-10T04:23:44.290Z,88.91
2023-05-10T04:26:11.737Z,88.58
2023-05-10T04:28:39.412Z,88.18
2023-05-10T04:31:11.250Z,87.80
2023-05-10T04:33:38.359Z,87.66
2023-05-10T04:36:05.828Z,87.33
2023-05-10T04:38:32.840Z,87.79
2023-05-10T04:41:10.261Z,86.33
2023-05-10T04:43:38.217Z,87.37
2023-05-10T04:46:06.407Z,87.26
2023-05-10T04:48:33.839Z,87.14
2023-05-10T04:51:01.047Z,87.21
2023-05-10T04:53:28.010Z,87.64
2023-05-10T04:55:55.233Z,87.92
2023-05-10T04:58:22.430Z,87.67
2023-05-10T05:00:49.337Z,89.19
2023-05-10T05:03:16.407Z,88.52
2023-05-10T05:05:43.416Z,88.26
2023-05-10T05:08:10.250Z,87.16
2023-05-10T05:10:37.128Z,88.48
2023-05-10T05:13:04.024Z,87.75
2023-05-10T05:15:31.705Z,87.58
2023-05-10T05:17:58.857Z,87.20
2023-05-10T05:20:25.742Z,86.63
2023-05-10T05:22:52.619Z,85.37
2023-05-10T05:25:19.574Z,86.88
2023-05-10T05:27:46.473Z,85.84
2023-05-10T05:30:16.910Z,85.75
2023-05-10T05:32:44.122Z,86.13
2023-05-10T05:35:11.112Z,85.99
2023-05-10T05:37:38.331Z,86.61
2023-05-10T05:40:05.733Z,86.33
2023-05-10T05:42:32.693Z,87.54
2023-05-10T05:44:59.600Z,87.59
2023-05-10T05:47:26.638Z,87.36
2023-05-10T05:49:53.441Z,86.77
2023-05-10T05:52:20.525Z,86.87
2023-05-10T05:54:47.448Z,86.56
2023-05-10T05:57:14.340Z,85.58
2023-05-10T05:59:44.952Z,84.08
2023-05-10T06:02:12.230Z,84.44
2023-05-10T06:04:39.293Z,82.96
2023-05-10T06:07:06.423Z,83.47
2023-05-10T06:09:33.376Z,82.96
2023-05-10T06:12:00.228Z,82.82
2023-05-10T06:14:27.245Z,82.46
2023-05-10T06:16:54.324Z,80.49
2023-05-10T06:19:21.210Z,81.45
2023-05-10T06:21:48.026Z,81.32
2023-05-10T06:24:14.882Z,79.65
2023-05-10T06:26:41.734Z,79.11
2023-05-10T06:29:08.538Z,79.82
2023-05-10T06:31:35.631Z,78.84
2023-05-10T06:34:02.785Z,79.28
2023-05-10T06:36:29.722Z,78.68
2023-05-10T06:38:56.861Z,79.42
2023-05-10T06:41:24.790Z,79.60
2023-05-10T06:43:51.888Z,78.78
2023-05-10T06:46:18.923Z,78.10
2023-05-10T06:48:45.995Z,79.23
2023-05-10T06:51:18.978Z,77.68
2023-05-10T06:53:46.118Z,77.26
2023-05-10T06:56:13.155Z,79.56
2023-05-10T06:58:40.032Z,78.05
2023-05-10T07:01:07.269Z,78.16
2023-05-10T07:03:34.258Z,78.93
2023-05-10T07:06:11.372Z,77.81
2023-05-10T07:08:42.816Z,77.60
2023-05-10T07:11:09.724Z,76.69
2023-05-10T07:13:37.416Z,78.52
2023-05-10T07:16:05.468Z,77.65
2023-05-10T07:18:32.334Z,77.36
2023-05-10T07:20:59.286Z,76.33
2023-05-10T07:23:26.297Z,76.82
2023-05-10T07:25:53.470Z,75.22
2023-05-10T07:28:20.876Z,75.58
2023-05-10T07:30:48.150Z,75.92
2023-05-10T07:33:16.153Z,76.61
2023-05-10T07:35:43.667Z,76.15
2023-05-10T07:38:12.234Z,76.83
2023-05-10T07:40:40.092Z,76.78
2023-05-10T07:43:07.077Z,77.59
2023-05-10T07:45:34.861Z,76.41
2023-05-10T07:48:01.811Z,75.58
2023-05-10T07:50:28.774Z,74.56
2023-05-10T07:52:55.932Z,74.79
2023-05-10T07:55:23.361Z,74.94
2023-05-10T07:57:50.204Z,76.75
2023-05-10T08:00:21.753Z,75.73
2023-05-10T08:02:49.005Z,76.97
2023-05-10T08:05:17.330Z,76.37
2023-05-10T08:07:44.538Z,75.98
2023-05-10T08:10:12.393Z,75.68
2023-05-10T08:12:39.884Z,75.12
2023-05-10T08:15:08.216Z,74.92
2023-05-10T08:17:35.487Z,75.23
2023-05-10T08:20:02.575Z,73.36
2023-05-10T08:22:29.564Z,73.86
2023-05-10T08:24:56.639Z,72.20
2023-05-10T08:27:23.690Z,72.14
2023-05-10T08:29:50.842Z,73.64
2023-05-10T08:32:18.337Z,73.81
2023-05-10T08:34:45.228Z,74.33
2023-05-10T08:37:14.600Z,74.15
2023-05-10T08:39:41.865Z,73.54
2023-05-10T08:42:10.311Z,73.20
2023-05-10T08:44:38.248Z,71.25
2023-05-10T08:47:10.405Z,70.22
2023-05-10T08:49:38.794Z,70.34
2023-05-10T08:52:08.624Z,71.80
2023-05-10T08:54:35.957Z,71.54
2023-05-10T08:57:03.137Z,73.14
2023-05-10T08:59:30.234Z,71.28
2023-05-10T09:02:01.189Z,71.38
2023-05-10T09:04:29.539Z,71.34
2023-05-10T09:06:56.597Z,70.84
2023-05-10T09:09:26.588Z,69.83
2023-05-10T09:11:54.460Z,71.00
2023-05-10T09:14:21.898Z,71.88
2023-05-10T09:16:49.014Z,72.25
2023-05-10T09:19:16.007Z,72.62
2023-05-10T09:21:43.369Z,73.72
2023-05-10T09:24:10.610Z,74.23
2023-05-10T09:26:48.674Z,74.01
2023-05-10T09:29:17.512Z,73.19
2023-05-10T09:31:52.286Z,72.37
2023-05-10T09:34:22.135Z,71.90
2023-05-10T09:36:57.565Z,71.76
2023-05-10T09:39:35.486Z,71.73
2023-05-10T09:42:10.577Z,72.69
2023-05-10T09:44:38.096Z,71.46
2023-05-10T09:47:05.462Z,71.42
2023-05-10T09:49:32.407Z,71.93
2023-05-10T09:52:03.715Z,71.23
2023-05-10T09:54:30.971Z,69.95
2023-05-10T09:56:58.168Z,69.98
2023-05-10T09:59:28.563Z,69.90
2023-05-10T10:02:00.739Z,70.65
2023-05-10T10:04:28.056Z,70.65
2023-05-10T10:07:03.830Z,71.42
2023-05-10T10:09:31.094Z,71.53
2023-05-10T10:11:58.208Z,70.41
2023-05-10T10:14:25.880Z,70.65
2023-05-10T10:17:06.375Z,69.77
2023-05-10T10:19:38.033Z,71.07
2023-05-10T10:22:05.698Z,70.61
2023-05-10T10:24:32.818Z,72.63
2023-05-10T10:27:29.837Z,72.55
2023-05-10T10:30:14.876Z,71.61
2023-05-10T10:33:27.784Z,71.44
2023-05-10T10:35:59.000Z,70.33
2023-05-10T10:38:26.152Z,70.32
2023-05-10T10:41:32.774Z,70.75
2023-05-10T10:44:23.446Z,70.15
2023-05-10T10:47:10.388Z,69.05
2023-05-10T10:49:49.583Z,69.89
2023-05-10T10:52:30.342Z,70.30
2023-05-10T10:55:10.495Z,70.83
2023-05-10T10:57:54.085Z,70.71
2023-05-10T11:00:39.340Z,68.95
2023-05-10T11:03:15.624Z,68.90
2023-05-10T11:05:59.087Z,69.40
2023-05-10T11:08:30.737Z,70.65
2023-05-10T11:11:00.420Z,70.15
2023-05-10T11:13:33.145Z,70.05
2023-05-10T11:16:10.597Z,71.65
2023-05-10T11:18:39.087Z,70.53
2023-05-10T11:21:10.489Z,70.31
2023-05-10T11:23:49.183Z,70.33
2023-05-10T11:26:16.062Z,70.70
2023-05-10T11:28:47.735Z,70.55
2023-05-10T11:31:19.074Z,69.46
2023-05-10T11:33:55.608Z,68.77
2023-05-10T11:36:23.327Z,69.48
2023-05-10T11:38:50.657Z,69.66
2023-05-10T11:41:20.163Z,69.34
2023-05-10T11:43:50.096Z,68.50
2023-05-10T11:46:19.627Z,67.90
2023-05-10T11:48:46.783Z,67.35
2023-05-10T11:51:13.782Z,67.96
2023-05-10T11:53:40.781Z,67.21
2023-05-10T11:56:09.525Z,66.33
2023-05-10T11:58:38.500Z,66.36
2023-05-10T12:01:07.619Z,66.46
2023-05-10T12:03:35.580Z,65.45
2023-05-10T12:06:03.336Z,65.05
2023-05-10T12:08:32.075Z,65.82
2023-05-10T12:11:11.567Z,64.60
2023-05-10T12:13:47.546Z,64.27
2023-05-10T12:16:19.482Z,64.75
2023-05-10T12:18:49.177Z,64.15
2023-05-10T12:21:16.716Z,63.55
2023-05-10T12:23:43.717Z,63.60
2023-05-10T12:26:13.620Z,63.10
2023-05-10T12:28:40.809Z,64.01
2023-05-10T12:31:08.206Z,66.01
2023-05-10T12:33:43.615Z,65.65
2023-05-10T12:36:15.631Z,66.56
2023-05-10T12:41:19.900Z,65.47
2023-05-10T12:46:30.718Z,66.55
2023-05-10T12:49:08.035Z,66.20
2023-05-10T12:51:36.665Z,67.33
2023-05-10T12:54:04.979Z,66.67
2023-05-10T12:56:32.068Z,68.81
2023-05-10T12:58:59.028Z,67.12
2023-05-10T13:04:01.651Z,67.13
2023-05-10T13:06:28.887Z,66.35
2023-05-10T13:08:55.929Z,68.51
2023-05-10T13:11:22.915Z,67.70
2023-05-10T13:13:49.878Z,66.94
2023-05-10T13:16:16.705Z,65.76
2023-05-10T13:18:43.615Z,65.84
2023-05-10T13:21:10.682Z,66.15
2023-05-10T13:23:37.461Z,65.65
2023-05-10T13:26:04.310Z,66.19
2023-05-10T13:28:31.431Z,67.27
2023-05-10T13:30:58.356Z,66.80
2023-05-10T13:33:25.315Z,66.19
2023-05-10T13:35:54.352Z,67.22
2023-05-10T13:38:22.714Z,68.96
2023-05-10T13:40:54.008Z,69.02
2023-05-10T13:43:21.151Z,69.05
2023-05-10T13:45:47.967Z,67.73
2023-05-10T13:48:14.763Z,66.54
2023-05-10T13:50:41.636Z,66.24
2023-05-10T13:53:08.414Z,66.60
2023-05-10T13:55:35.339Z,65.75
2023-05-10T13:58:02.127Z,65.13
2023-05-10T14:00:30.270Z,64.25
2023-05-10T14:02:57.364Z,66.47
2023-05-10T14:05:26.286Z,66.11
2023-05-10T14:07:53.532Z,65.13
2023-05-10T14:10:20.435Z,65.37
2023-05-10T14:12:47.365Z,65.87
2023-05-10T14:15:14.280Z,65.53
2023-05-10T14:17:41.421Z,66.46
2023-05-10T14:20:09.492Z,67.02
2023-05-10T14:22:36.628Z,67.20
2023-05-10T14:25:03.992Z,68.27
2023-05-10T14:30:06.824Z,67.46
2023-05-10T14:32:33.790Z,66.65
2023-05-10T14:37:49.346Z,68.74
2023-05-10T14:40:16.393Z,67.01
2023-05-10T14:42:44.157Z,68.32
2023-05-10T14:45:12.300Z,68.03
2023-05-10T14:47:39.286Z,67.74
2023-05-10T14:50:06.789Z,67.81
2023-05-10T14:52:34.433Z,68.69
2023-05-10T14:55:02.462Z,66.71
2023-05-10T14:57:30.811Z,66.13
2023-05-10T14:59:58.243Z,66.46
2023-05-10T15:02:25.706Z,66.75
2023-05-10T15:04:53.128Z,68.25
2023-05-10T15:07:20.253Z,66.50
2023-05-10T15:09:47.316Z,67.89
2023-05-10T15:12:14.219Z,66.95
2023-05-10T15:14:41.089Z,66.92
2023-05-10T15:17:08.765Z,67.45
2023-05-10T15:19:35.678Z,69.41
2023-05-10T15:22:02.792Z,68.07
2023-05-10T15:24:30.192Z,67.72
2023-05-10T15:26:56.976Z,68.46
2023-05-10T15:29:23.935Z,68.00
2023-05-10T15:31:52.191Z,66.97
2023-05-10T15:34:19.968Z,68.58
2023-05-10T15:36:47.028Z,69.09
2023-05-10T15:39:13.964Z,68.65
2023-05-10T15:59:27.071Z,64.13
2023-05-10T16:01:54.125Z,64.39
2023-05-10T16:04:21.246Z,64.99
2023-05-10T16:06:48.269Z,65.67
2023-05-10T16:09:15.875Z,65.73
2023-05-10T16:11:45.649Z,66.17
2023-05-10T16:14:12.619Z,66.87
2023-05-10T16:16:39.772Z,66.80
2023-05-10T16:19:06.850Z,67.77
2023-05-10T16:21:34.025Z,68.51
2023-05-10T16:24:01.822Z,69.13
2023-05-10T16:26:28.980Z,69.36
2023-05-10T16:28:55.815Z,69.58
2023-05-10T16:31:23.388Z,69.17
2023-05-10T16:33:50.484Z,70.78
2023-05-10T16:36:17.587Z,70.27
2023-05-10T16:38:44.483Z,70.63
2023-05-10T16:41:11.613Z,69.85
2023-05-10T16:43:38.672Z,70.02
2023-05-10T16:46:12.032Z,69.67
2023-05-10T16:48:39.116Z,69.39
2023-05-10T16:51:06.232Z,68.82
2023-05-10T16:53:33.157Z,68.83
2023-05-10T16:56:00.364Z,68.61
2023-05-10T16:58:27.422Z,69.00
2023-05-10T17:00:54.354Z,69.07
2023-05-10T17:03:21.898Z,69.31
2023-05-10T17:05:48.932Z,70.49
2023-05-10T17:08:16.854Z,70.46
2023-05-10T17:10:43.959Z,71.01
2023-05-10T17:13:11.231Z,71.55
2023-05-10T17:15:39.653Z,70.91
2023-05-10T17:18:07.977Z,72.10
2023-05-10T17:20:35.222Z,71.29
2023-05-10T17:23:03.798Z,70.59
2023-05-10T17:25:31.259Z,71.22
2023-05-10T17:27:58.218Z,71.06
2023-05-10T17:30:28.331Z,70.43
2023-05-10T17:32:55.604Z,71.15
2023-05-10T17:35:22.895Z,70.97
2023-05-10T17:37:49.835Z,71.55
2023-05-10T17:40:17.464Z,71.24
2023-05-10T17:42:45.240Z,71.54
2023-05-10T17:45:12.459Z,71.75
2023-05-10T17:47:39.571Z,71.38
2023-05-10T17:50:07.326Z,71.96
2023-05-10T17:52:34.340Z,72.02
2023-05-10T17:55:01.770Z,71.54
2023-05-10T17:57:28.896Z,71.55
2023-05-10T17:59:56.096Z,71.38
2023-05-10T18:02:23.083Z,71.44
2023-05-10T18:04:50.106Z,71.71
2023-05-10T18:07:17.232Z,71.69
2023-05-10T18:09:44.075Z,71.61
2023-05-10T18:12:11.015Z,72.04
2023-05-10T18:14:40.967Z,72.08
2023-05-10T18:17:09.877Z,72.08
2023-05-10T18:19:37.085Z,72.24
2023-05-10T18:22:03.932Z,72.10
2023-05-10T18:24:39.008Z,71.96
2023-05-10T18:27:08.882Z,72.38
2023-05-10T18:29:37.213Z,72.25
2023-05-10T18:32:04.362Z,72.85
2023-05-10T18:34:31.339Z,73.49
2023-05-10T18:36:58.275Z,72.80
2023-05-10T18:39:25.278Z,72.78
2023-05-10T18:41:52.485Z,72.38
2023-05-10T18:44:19.567Z,73.67
2023-05-10T18:46:46.872Z,74.01
2023-05-10T18:49:13.741Z,73.02
2023-05-10T18:51:40.770Z,72.58
2023-05-10T18:54:07.697Z,73.36
2023-05-10T18:56:34.681Z,73.35
2023-05-10T18:59:01.726Z,72.56
2023-05-10T19:01:28.681Z,72.78
2023-05-10T19:03:55.495Z,72.65
2023-05-10T19:06:22.535Z,73.04
2023-05-10T19:08:50.513Z,73.71
2023-05-10T19:11:17.554Z,74.04
2023-05-10T19:13:45.503Z,73.56
2023-05-10T19:16:16.771Z,74.92
2023-05-10T19:18:46.861Z,73.84
2023-05-10T19:21:14.603Z,73.99
2023-05-10T19:23:43.069Z,74.35
2023-05-10T19:26:11.308Z,73.77
2023-05-10T19:28:38.976Z,73.57
2023-05-10T19:31:06.397Z,72.97
2023-05-10T19:33:33.488Z,73.11
2023-05-10T19:36:00.938Z,72.98
2023-05-10T19:38:28.531Z,72.93
2023-05-10T19:40:58.439Z,73.69
2023-05-10T19:43:27.111Z,73.97
2023-05-10T19:45:55.770Z,73.81
2023-05-10T19:48:24.507Z,75.03
2023-05-10T19:50:52.872Z,74.36
2023-05-10T19:53:20.052Z,73.55
2023-05-10T19:55:47.074Z,73.09
2023-05-10T19:58:14.533Z,73.48
2023-05-10T20:00:41.534Z,73.58
2023-05-10T20:03:09.417Z,73.07
2023-05-10T20:05:36.507Z,72.95
2023-05-10T20:08:03.467Z,73.23
2023-05-10T20:10:30.416Z,72.93
2023-05-10T20:12:59.234Z,73.60
2023-05-10T20:15:26.424Z,73.17
2023-05-10T20:17:55.278Z,73.37
2023-05-10T20:20:22.369Z,73.67
2023-05-10T20:22:50.356Z,72.81
2023-05-10T20:25:19.345Z,72.39
2023-05-10T20:27:46.836Z,72.92
2023-05-10T20:30:14.310Z,72.24
2023-05-10T20:32:41.303Z,72.35
2023-05-10T20:35:09.482Z,72.51
2023-05-10T20:37:39.215Z,72.56
2023-05-10T20:40:07.458Z,72.68
2023-05-10T20:42:34.660Z,72.60
2023-05-10T20:45:02.210Z,71.96
2023-05-10T20:47:29.276Z,72.23
2023-05-10T20:49:56.323Z,73.09
2023-05-10T20:52:24.594Z,72.08
2023-05-10T20:54:51.693Z,71.62
2023-05-10T20:57:20.237Z,71.85
2023-05-10T20:59:47.186Z,71.12
2023-05-10T21:02:14.050Z,70.43
2023-05-10T21:04:41.158Z,70.67
2023-05-10T21:07:07.960Z,70.04
2023-05-10T21:09:43.499Z,70.68
2023-05-10T21:12:11.033Z,70.55
2023-05-10T21:14:38.004Z,71.29
2023-05-10T21:17:04.953Z,70.63
2023-05-10T21:19:31.784Z,70.19
2023-05-10T21:21:59.833Z,69.88
2023-05-10T21:24:28.203Z,70.36
2023-05-10T21:26:55.270Z,70.17
2023-05-10T21:29:22.216Z,69.75
2023-05-10T21:31:49.169Z,69.60
2023-05-10T21:34:18.089Z,69.78
2023-05-10T21:36:44.968Z,70.91
2023-05-10T21:39:11.982Z,69.81
2023-05-10T21:41:39.121Z,69.18
2023-05-10T21:44:06.081Z,69.07
2023-05-10T21:46:32.982Z,69.18
2023-05-10T21:48:59.978Z,69.60
2023-05-10T21:51:26.823Z,71.22
2023-05-10T21:53:54.045Z,69.97
2023-05-10T21:56:20.874Z,70.09
2023-05-10T21:58:48.099Z,69.12
2023-05-10T22:01:17.196Z,68.96
2023-05-10T22:03:44.749Z,69.46
2023-05-10T22:06:11.678Z,68.71
2023-05-10T22:08:38.502Z,69.44
2023-05-10T22:11:05.448Z,69.40
2023-05-10T22:13:32.282Z,69.28
2023-05-10T22:15:59.399Z,68.75
2023-05-10T22:18:26.461Z,69.00
2023-05-10T22:20:53.324Z,69.15
2023-05-10T22:23:20.150Z,69.46
2023-05-10T22:25:47.029Z,69.42
2023-05-10T22:28:13.861Z,69.29
2023-05-10T22:30:42.694Z,70.82
2023-05-10T22:33:09.624Z,70.33
2023-05-10T22:35:36.484Z,70.33
2023-05-10T22:38:03.325Z,69.33
2023-05-10T22:40:30.309Z,69.66
2023-05-10T22:42:57.317Z,69.19
2023-05-10T22:45:24.253Z,67.73
2023-05-10T22:47:51.337Z,68.01
2023-05-10T22:50:18.821Z,68.14
2023-05-10T22:52:46.037Z,68.62
2023-05-10T22:55:12.906Z,68.63
2023-05-10T22:57:40.083Z,68.07
2023-05-10T23:00:07.658Z,67.67
2023-05-10T23:02:35.048Z,67.19
2023-05-10T23:05:02.016Z,66.61
2023-05-10T23:07:28.986Z,66.36
2023-05-10T23:09:55.977Z,67.68
2023-05-10T23:12:22.945Z,67.01
2023-05-10T23:14:50.739Z,66.53
2023-05-10T23:17:17.653Z,66.36
2023-05-10T23:19:44.664Z,66.67
2023-05-10T23:22:11.599Z,66.51
2023-05-10T23:24:39.334Z,67.05
2023-05-10T23:27:06.306Z,66.30
2023-05-10T23:29:34.973Z,66.16
2023-05-10T23:32:01.973Z,66.92
2023-05-10T23:34:28.948Z,66.57
2023-05-10T23:36:56.619Z,66.64
2023-05-10T23:39:23.399Z,66.88
2023-05-10T23:41:50.411Z,67.02
2023-05-10T23:44:17.276Z,66.96
2023-05-10T23:46:44.189Z,66.68
2023-05-10T23:49:11.255Z,67.38
2023-05-10T23:55:35.120Z,67.13
2023-05-10T23:58:02.318Z,66.60
